sensor_id;sensor_type;location;lat;lon;timestamp;P1;durP1;ratioP1;P2;durP2;ratioP2
56321;SDS011;42227;6.376;-10.782;2024-02-04T00:01:10;101.60;;;35.30;;
56321;SDS011;42227;6.376;-10.782;2024-02-04T00:03:38;72.68;;;35.58;;
56321;SDS011;42227;6.376;-10.782;2024-02-04T00:06:07;88.30;;;37.92;;
56321;SDS011;42227;6.376;-10.782;2024-02-04T00:08:35;83.35;;;41.20;;
56321;SDS011;42227;6.376;-10.782;2024-02-04T00:11:04;72.35;;;40.58;;
56321;SDS011;42227;6.376;-10.782;2024-02-04T00:13:32;68.05;;;37.90;;
56321;SDS011;42227;6.376;-10.782;2024-02-04T00:16:01;70.78;;;32.72;;
56321;SDS011;42227;6.376;-10.782;2024-02-04T00:18:29;68.05;;;34.08;;
56321;SDS011;42227;6.376;-10.782;2024-02-04T00:20:58;72.70;;;33.97;;
56321;SDS011;42227;6.376;-10.782;2024-02-04T00:23:26;73.68;;;32.17;;
56321;SDS011;42227;6.376;-10.782;2024-02-04T00:25:54;55.65;;;28.08;;
56321;SDS011;42227;6.376;-10.782;2024-02-04T00:28:23;67.15;;;34.45;;
56321;SDS011;42227;6.376;-10.782;2024-02-04T00:30:51;81.63;;;40.58;;
56321;SDS011;42227;6.376;-10.782;2024-02-04T00:33:20;90.22;;;45.80;;
56321;SDS011;42227;6.376;-10.782;2024-02-04T00:35:50;69.40;;;33.85;;
56321;SDS011;42227;6.376;-10.782;2024-02-04T00:38:18;60.30;;;30.80;;
56321;SDS011;42227;6.376;-10.782;2024-02-04T00:40:47;80.78;;;37.42;;
56321;SDS011;42227;6.376;-10.782;2024-02-04T00:43:15;88.03;;;50.97;;
56321;SDS011;42227;6.376;-10.782;2024-02-04T00:45:44;106.30;;;51.28;;
56321;SDS011;42227;6.376;-10.782;2024-02-04T00:48:12;59.65;;;35.10;;
56321;SDS011;42227;6.376;-10.782;2024-02-04T00:50:41;66.20;;;28.70;;
56321;SDS011;42227;6.376;-10.782;2024-02-04T00:53:10;56.40;;;27.02;;
56321;SDS011;42227;6.376;-10.782;2024-02-04T00:55:38;50.17;;;24.95;;
56321;SDS011;42227;6.376;-10.782;2024-02-04T00:58:07;58.58;;;26.65;;
56321;SDS011;42227;6.376;-10.782;2024-02-04T01:00:35;91.72;;;46.63;;
56321;SDS011;42227;6.376;-10.782;2024-02-04T01:03:03;102.60;;;50.55;;
56321;SDS011;42227;6.376;-10.782;2024-02-04T01:05:32;99.82;;;54.45;;
56321;SDS011;42227;6.376;-10.782;2024-02-04T01:08:01;125.13;;;64.22;;
56321;SDS011;42227;6.376;-10.782;2024-02-04T01:10:29;184.57;;;115.65;;
56321;SDS011;42227;6.376;-10.782;2024-02-04T01:12:57;216.13;;;133.68;;
56321;SDS011;42227;6.376;-10.782;2024-02-04T01:15:26;211.07;;;125.75;;
56321;SDS011;42227;6.376;-10.782;2024-02-04T01:17:54;159.68;;;114.65;;
56321;SDS011;42227;6.376;-10.782;2024-02-04T01:20:23;169.90;;;109.13;;
56321;SDS011;42227;6.376;-10.782;2024-02-04T01:22:51;166.40;;;104.82;;
56321;SDS011;42227;6.376;-10.782;2024-02-04T01:25:20;150.23;;;93.03;;
56321;SDS011;42227;6.376;-10.782;2024-02-04T01:27:48;137.82;;;80.60;;
56321;SDS011;42227;6.376;-10.782;2024-02-04T01:30:17;112.03;;;54.05;;
56321;SDS011;42227;6.376;-10.782;2024-02-04T01:32:45;80.22;;;42.88;;
56321;SDS011;42227;6.376;-10.782;2024-02-04T01:35:15;77.93;;;37.42;;
56321;SDS011;42227;6.376;-10.782;2024-02-04T01:37:43;65.05;;;33.65;;
56321;SDS011;42227;6.376;-10.782;2024-02-04T01:40:11;71.00;;;32.58;;
56321;SDS011;42227;6.376;-10.782;2024-02-04T01:42:40;69.50;;;34.58;;
56321;SDS011;42227;6.376;-10.782;2024-02-04T01:45:09;55.03;;;34.33;;
56321;SDS011;42227;6.376;-10.782;2024-02-04T01:47:37;98.68;;;42.72;;
56321;SDS011;42227;6.376;-10.782;2024-02-04T01:50:06;120.72;;;53.00;;
56321;SDS011;42227;6.376;-10.782;2024-02-04T01:52:36;108.97;;;50.60;;
56321;SDS011;42227;6.376;-10.782;2024-02-04T01:55:06;102.05;;;51.30;;
56321;SDS011;42227;6.376;-10.782;2024-02-04T01:57:35;120.38;;;53.70;;
56321;SDS011;42227;6.376;-10.782;2024-02-04T02:00:05;110.88;;;47.63;;
56321;SDS011;42227;6.376;-10.782;2024-02-04T02:02:41;93.10;;;45.45;;
56321;SDS011;42227;6.376;-10.782;2024-02-04T02:05:10;77.53;;;34.67;;
56321;SDS011;42227;6.376;-10.782;2024-02-04T02:07:39;78.85;;;36.53;;
56321;SDS011;42227;6.376;-10.782;2024-02-04T02:10:09;77.65;;;36.47;;
56321;SDS011;42227;6.376;-10.782;2024-02-04T02:12:43;82.20;;;35.90;;
56321;SDS011;42227;6.376;-10.782;2024-02-04T02:15:23;91.37;;;39.73;;
56321;SDS011;42227;6.376;-10.782;2024-02-04T02:17:57;76.63;;;40.72;;
56321;SDS011;42227;6.376;-10.782;2024-02-04T02:23:31;76.40;;;37.42;;
56321;SDS011;42227;6.376;-10.782;2024-02-04T02:26:04;81.57;;;39.55;;
56321;SDS011;42227;6.376;-10.782;2024-02-04T02:28:33;67.95;;;34.03;;
56321;SDS011;42227;6.376;-10.782;2024-02-04T02:31:02;59.90;;;29.38;;
56321;SDS011;42227;6.376;-10.782;2024-02-04T02:33:33;56.58;;;31.13;;
56321;SDS011;42227;6.376;-10.782;2024-02-04T02:36:02;51.85;;;27.05;;
56321;SDS011;42227;6.376;-10.782;2024-02-04T02:38:45;78.93;;;32.58;;
56321;SDS011;42227;6.376;-10.782;2024-02-04T02:41:27;70.30;;;36.83;;
56321;SDS011;42227;6.376;-10.782;2024-02-04T02:43:59;136.10;;;72.97;;
56321;SDS011;42227;6.376;-10.782;2024-02-04T02:46:28;103.55;;;61.03;;
56321;SDS011;42227;6.376;-10.782;2024-02-04T02:48:57;114.88;;;60.72;;
56321;SDS011;42227;6.376;-10.782;2024-02-04T02:51:26;100.07;;;52.42;;
56321;SDS011;42227;6.376;-10.782;2024-02-04T02:53:55;86.18;;;51.22;;
56321;SDS011;42227;6.376;-10.782;2024-02-04T02:56:23;84.55;;;49.22;;
56321;SDS011;42227;6.376;-10.782;2024-02-04T02:58:52;97.28;;;49.25;;
56321;SDS011;42227;6.376;-10.782;2024-02-04T03:01:21;87.88;;;48.55;;
56321;SDS011;42227;6.376;-10.782;2024-02-04T03:03:49;73.15;;;44.50;;
56321;SDS011;42227;6.376;-10.782;2024-02-04T03:06:20;76.47;;;43.95;;
56321;SDS011;42227;6.376;-10.782;2024-02-04T03:08:49;95.68;;;45.03;;
56321;SDS011;42227;6.376;-10.782;2024-02-04T03:11:17;77.50;;;42.20;;
56321;SDS011;42227;6.376;-10.782;2024-02-04T03:13:46;81.75;;;40.40;;
56321;SDS011;42227;6.376;-10.782;2024-02-04T03:16:14;89.60;;;41.55;;
56321;SDS011;42227;6.376;-10.782;2024-02-04T03:18:43;81.63;;;41.60;;
56321;SDS011;42227;6.376;-10.782;2024-02-04T03:21:14;75.13;;;42.85;;
56321;SDS011;42227;6.376;-10.782;2024-02-04T03:23:44;68.60;;;37.60;;
56321;SDS011;42227;6.376;-10.782;2024-02-04T03:26:15;81.30;;;39.38;;
56321;SDS011;42227;6.376;-10.782;2024-02-04T03:28:45;89.60;;;39.78;;
56321;SDS011;42227;6.376;-10.782;2024-02-04T03:31:20;89.53;;;40.58;;
56321;SDS011;42227;6.376;-10.782;2024-02-04T03:33:50;82.07;;;44.45;;
56321;SDS011;42227;6.376;-10.782;2024-02-04T03:36:20;68.10;;;42.83;;
56321;SDS011;42227;6.376;-10.782;2024-02-04T03:38:50;80.27;;;41.10;;
56321;SDS011;42227;6.376;-10.782;2024-02-04T03:41:19;73.65;;;39.28;;
56321;SDS011;42227;6.376;-10.782;2024-02-04T03:43:48;73.28;;;40.13;;
56321;SDS011;42227;6.376;-10.782;2024-02-04T03:46:16;79.10;;;39.88;;
56321;SDS011;42227;6.376;-10.782;2024-02-04T03:48:45;99.63;;;37.70;;
56321;SDS011;42227;6.376;-10.782;2024-02-04T03:51:17;65.30;;;40.45;;
56321;SDS011;42227;6.376;-10.782;2024-02-04T03:53:48;76.90;;;40.40;;
56321;SDS011;42227;6.376;-10.782;2024-02-04T03:56:18;82.80;;;37.50;;
56321;SDS011;42227;6.376;-10.782;2024-02-04T03:58:46;66.90;;;36.97;;
56321;SDS011;42227;6.376;-10.782;2024-02-04T04:01:15;79.93;;;41.63;;
56321;SDS011;42227;6.376;-10.782;2024-02-04T04:03:43;81.22;;;44.85;;
56321;SDS011;42227;6.376;-10.782;2024-02-04T04:06:13;70.88;;;42.97;;
56321;SDS011;42227;6.376;-10.782;2024-02-04T04:08:41;91.30;;;46.05;;
56321;SDS011;42227;6.376;-10.782;2024-02-04T04:11:10;81.30;;;43.30;;
56321;SDS011;42227;6.376;-10.782;2024-02-04T04:13:38;88.35;;;42.55;;
56321;SDS011;42227;6.376;-10.782;2024-02-04T04:16:06;71.85;;;42.10;;
56321;SDS011;42227;6.376;-10.782;2024-02-04T04:18:35;83.85;;;45.28;;
56321;SDS011;42227;6.376;-10.782;2024-02-04T04:21:04;79.30;;;47.35;;
56321;SDS011;42227;6.376;-10.782;2024-02-04T04:23:32;72.40;;;42.17;;
56321;SDS011;42227;6.376;-10.782;2024-02-04T04:26:00;90.93;;;42.72;;
56321;SDS011;42227;6.376;-10.782;2024-02-04T04:28:29;86.47;;;44.88;;
56321;SDS011;42227;6.376;-10.782;2024-02-04T04:30:57;75.90;;;44.03;;
56321;SDS011;42227;6.376;-10.782;2024-02-04T04:33:26;83.90;;;45.72;;
56321;SDS011;42227;6.376;-10.782;2024-02-04T04:35:54;87.05;;;50.42;;
56321;SDS011;42227;6.376;-10.782;2024-02-04T04:38:23;92.75;;;45.25;;
56321;SDS011;42227;6.376;-10.782;2024-02-04T04:40:51;95.60;;;51.08;;
56321;SDS011;42227;6.376;-10.782;2024-02-04T04:43:20;102.45;;;51.42;;
56321;SDS011;42227;6.376;-10.782;2024-02-04T04:45:48;104.70;;;50.95;;
56321;SDS011;42227;6.376;-10.782;2024-02-04T04:48:16;127.60;;;52.58;;
56321;SDS011;42227;6.376;-10.782;2024-02-04T04:50:45;113.30;;;56.42;;
56321;SDS011;42227;6.376;-10.782;2024-02-04T04:53:13;101.05;;;52.33;;
56321;SDS011;42227;6.376;-10.782;2024-02-04T04:55:42;101.47;;;54.05;;
56321;SDS011;42227;6.376;-10.782;2024-02-04T04:58:10;106.18;;;51.78;;
56321;SDS011;42227;6.376;-10.782;2024-02-04T05:00:38;97.13;;;53.88;;
56321;SDS011;42227;6.376;-10.782;2024-02-04T05:03:07;93.00;;;56.92;;
56321;SDS011;42227;6.376;-10.782;2024-02-04T05:05:35;88.57;;;53.22;;
56321;SDS011;42227;6.376;-10.782;2024-02-04T05:08:04;103.28;;;50.85;;
56321;SDS011;42227;6.376;-10.782;2024-02-04T05:10:32;104.45;;;54.25;;
56321;SDS011;42227;6.376;-10.782;2024-02-04T05:13:01;101.63;;;56.10;;
56321;SDS011;42227;6.376;-10.782;2024-02-04T05:15:29;79.53;;;51.60;;
56321;SDS011;42227;6.376;-10.782;2024-02-04T05:17:58;85.75;;;42.80;;
56321;SDS011;42227;6.376;-10.782;2024-02-04T05:20:26;68.28;;;38.17;;
56321;SDS011;42227;6.376;-10.782;2024-02-04T05:22:55;69.63;;;40.03;;
56321;SDS011;42227;6.376;-10.782;2024-02-04T05:25:23;63.85;;;36.92;;
56321;SDS011;42227;6.376;-10.782;2024-02-04T05:27:52;82.43;;;42.83;;
56321;SDS011;42227;6.376;-10.782;2024-02-04T05:30:20;66.20;;;38.92;;
56321;SDS011;42227;6.376;-10.782;2024-02-04T05:32:49;76.32;;;41.30;;
56321;SDS011;42227;6.376;-10.782;2024-02-04T05:35:17;93.53;;;42.10;;
56321;SDS011;42227;6.376;-10.782;2024-02-04T05:37:45;99.32;;;44.17;;
56321;SDS011;42227;6.376;-10.782;2024-02-04T05:40:14;81.15;;;43.20;;
56321;SDS011;42227;6.376;-10.782;2024-02-04T05:42:43;93.40;;;46.83;;
56321;SDS011;42227;6.376;-10.782;2024-02-04T05:45:11;106.82;;;52.25;;
56321;SDS011;42227;6.376;-10.782;2024-02-04T05:47:40;92.78;;;49.70;;
56321;SDS011;42227;6.376;-10.782;2024-02-04T05:50:08;99.97;;;53.85;;
56321;SDS011;42227;6.376;-10.782;2024-02-04T05:52:37;95.80;;;50.47;;
56321;SDS011;42227;6.376;-10.782;2024-02-04T05:55:06;94.15;;;46.97;;
56321;SDS011;42227;6.376;-10.782;2024-02-04T05:57:34;98.40;;;44.47;;
56321;SDS011;42227;6.376;-10.782;2024-02-04T06:00:03;83.53;;;43.28;;
56321;SDS011;42227;6.376;-10.782;2024-02-04T06:02:34;73.40;;;40.45;;
56321;SDS011;42227;6.376;-10.782;2024-02-04T06:05:05;63.67;;;43.33;;
56321;SDS011;42227;6.376;-10.782;2024-02-04T06:07:33;71.35;;;40.13;;
56321;SDS011;42227;6.376;-10.782;2024-02-04T06:10:02;77.85;;;45.25;;
56321;SDS011;42227;6.376;-10.782;2024-02-04T06:12:31;80.30;;;47.40;;
56321;SDS011;42227;6.376;-10.782;2024-02-04T06:14:59;83.35;;;43.33;;
56321;SDS011;42227;6.376;-10.782;2024-02-04T06:17:28;102.65;;;46.15;;
56321;SDS011;42227;6.376;-10.782;2024-02-04T06:19:56;68.03;;;41.70;;
56321;SDS011;42227;6.376;-10.782;2024-02-04T06:22:25;73.65;;;46.33;;
56321;SDS011;42227;6.376;-10.782;2024-02-04T06:24:53;66.35;;;42.22;;
56321;SDS011;42227;6.376;-10.782;2024-02-04T06:27:22;81.47;;;43.25;;
56321;SDS011;42227;6.376;-10.782;2024-02-04T06:29:50;77.70;;;40.45;;
56321;SDS011;42227;6.376;-10.782;2024-02-04T06:32:19;72.82;;;41.83;;
56321;SDS011;42227;6.376;-10.782;2024-02-04T06:34:47;85.53;;;51.28;;
56321;SDS011;42227;6.376;-10.782;2024-02-04T06:37:16;94.45;;;54.83;;
56321;SDS011;42227;6.376;-10.782;2024-02-04T06:39:44;100.35;;;55.70;;
56321;SDS011;42227;6.376;-10.782;2024-02-04T06:42:13;111.28;;;64.25;;
56321;SDS011;42227;6.376;-10.782;2024-02-04T06:44:44;103.65;;;62.53;;
56321;SDS011;42227;6.376;-10.782;2024-02-04T06:47:13;112.07;;;66.85;;
56321;SDS011;42227;6.376;-10.782;2024-02-04T06:49:44;116.07;;;71.03;;
56321;SDS011;42227;6.376;-10.782;2024-02-04T06:52:13;102.93;;;70.20;;
56321;SDS011;42227;6.376;-10.782;2024-02-04T06:54:41;106.75;;;70.50;;
56321;SDS011;42227;6.376;-10.782;2024-02-04T06:57:10;106.05;;;73.47;;
56321;SDS011;42227;6.376;-10.782;2024-02-04T06:59:38;133.50;;;75.85;;
56321;SDS011;42227;6.376;-10.782;2024-02-04T07:02:06;133.05;;;76.90;;
56321;SDS011;42227;6.376;-10.782;2024-02-04T07:04:35;119.78;;;77.15;;
56321;SDS011;42227;6.376;-10.782;2024-02-04T07:07:04;124.97;;;76.07;;
56321;SDS011;42227;6.376;-10.782;2024-02-04T07:09:32;126.35;;;74.72;;
56321;SDS011;42227;6.376;-10.782;2024-02-04T07:12:01;113.38;;;68.30;;
56321;SDS011;42227;6.376;-10.782;2024-02-04T07:14:29;114.10;;;71.32;;
56321;SDS011;42227;6.376;-10.782;2024-02-04T07:16:58;133.15;;;75.35;;
56321;SDS011;42227;6.376;-10.782;2024-02-04T07:19:26;112.82;;;70.28;;
56321;SDS011;42227;6.376;-10.782;2024-02-04T07:21:55;116.50;;;65.22;;
56321;SDS011;42227;6.376;-10.782;2024-02-04T07:24:23;104.25;;;66.30;;
56321;SDS011;42227;6.376;-10.782;2024-02-04T07:26:52;106.90;;;63.75;;
56321;SDS011;42227;6.376;-10.782;2024-02-04T07:29:20;102.70;;;64.30;;
56321;SDS011;42227;6.376;-10.782;2024-02-04T07:31:49;94.38;;;58.95;;
56321;SDS011;42227;6.376;-10.782;2024-02-04T07:34:17;101.82;;;57.88;;
56321;SDS011;42227;6.376;-10.782;2024-02-04T07:36:46;95.20;;;54.63;;
56321;SDS011;42227;6.376;-10.782;2024-02-04T07:39:14;99.10;;;55.40;;
56321;SDS011;42227;6.376;-10.782;2024-02-04T07:41:42;117.20;;;56.83;;
56321;SDS011;42227;6.376;-10.782;2024-02-04T07:44:11;101.00;;;52.38;;
56321;SDS011;42227;6.376;-10.782;2024-02-04T07:46:39;97.00;;;51.08;;
56321;SDS011;42227;6.376;-10.782;2024-02-04T07:49:07;98.47;;;51.90;;
56321;SDS011;42227;6.376;-10.782;2024-02-04T07:51:36;85.82;;;50.47;;
56321;SDS011;42227;6.376;-10.782;2024-02-04T07:54:04;85.88;;;49.80;;
56321;SDS011;42227;6.376;-10.782;2024-02-04T07:56:33;72.68;;;43.65;;
56321;SDS011;42227;6.376;-10.782;2024-02-04T07:59:01;77.72;;;40.88;;
56321;SDS011;42227;6.376;-10.782;2024-02-04T08:01:30;70.10;;;40.20;;
56321;SDS011;42227;6.376;-10.782;2024-02-04T08:03:59;68.65;;;37.22;;
56321;SDS011;42227;6.376;-10.782;2024-02-04T08:06:28;54.72;;;34.03;;
56321;SDS011;42227;6.376;-10.782;2024-02-04T08:08:56;72.00;;;37.17;;
56321;SDS011;42227;6.376;-10.782;2024-02-04T08:11:25;64.40;;;34.50;;
56321;SDS011;42227;6.376;-10.782;2024-02-04T08:13:53;70.72;;;33.58;;
56321;SDS011;42227;6.376;-10.782;2024-02-04T08:16:24;59.25;;;28.98;;
56321;SDS011;42227;6.376;-10.782;2024-02-04T08:18:53;57.05;;;32.00;;
56321;SDS011;42227;6.376;-10.782;2024-02-04T08:21:21;58.08;;;29.55;;
56321;SDS011;42227;6.376;-10.782;2024-02-04T08:23:50;52.47;;;28.48;;
56321;SDS011;42227;6.376;-10.782;2024-02-04T08:26:18;56.63;;;29.52;;
56321;SDS011;42227;6.376;-10.782;2024-02-04T08:28:47;66.50;;;29.15;;
56321;SDS011;42227;6.376;-10.782;2024-02-04T08:31:15;49.97;;;28.73;;
56321;SDS011;42227;6.376;-10.782;2024-02-04T08:33:44;50.35;;;29.88;;
56321;SDS011;42227;6.376;-10.782;2024-02-04T08:36:13;66.38;;;31.25;;
56321;SDS011;42227;6.376;-10.782;2024-02-04T08:38:43;73.07;;;33.55;;
56321;SDS011;42227;6.376;-10.782;2024-02-04T08:41:11;64.15;;;31.23;;
56321;SDS011;42227;6.376;-10.782;2024-02-04T08:43:39;79.30;;;32.33;;
56321;SDS011;42227;6.376;-10.782;2024-02-04T08:46:08;50.72;;;31.05;;
56321;SDS011;42227;6.376;-10.782;2024-02-04T08:48:41;66.78;;;33.00;;
56321;SDS011;42227;6.376;-10.782;2024-02-04T08:51:10;57.50;;;31.08;;
56321;SDS011;42227;6.376;-10.782;2024-02-04T08:53:39;68.60;;;33.40;;
56321;SDS011;42227;6.376;-10.782;2024-02-04T08:56:07;52.03;;;33.33;;
56321;SDS011;42227;6.376;-10.782;2024-02-04T08:58:36;67.28;;;35.22;;
56321;SDS011;42227;6.376;-10.782;2024-02-04T09:01:05;84.15;;;35.85;;
56321;SDS011;42227;6.376;-10.782;2024-02-04T09:03:33;62.28;;;35.55;;
56321;SDS011;42227;6.376;-10.782;2024-02-04T09:06:02;74.30;;;32.63;;
56321;SDS011;42227;6.376;-10.782;2024-02-04T09:08:30;61.42;;;31.67;;
56321;SDS011;42227;6.376;-10.782;2024-02-04T09:10:58;59.55;;;30.27;;
56321;SDS011;42227;6.376;-10.782;2024-02-04T09:13:28;55.88;;;32.28;;
56321;SDS011;42227;6.376;-10.782;2024-02-04T09:15:56;65.25;;;33.15;;
56321;SDS011;42227;6.376;-10.782;2024-02-04T09:18:25;67.80;;;32.70;;
56321;SDS011;42227;6.376;-10.782;2024-02-04T09:20:54;46.80;;;27.40;;
56321;SDS011;42227;6.376;-10.782;2024-02-04T09:23:23;68.78;;;30.75;;
56321;SDS011;42227;6.376;-10.782;2024-02-04T09:25:51;59.97;;;29.48;;
56321;SDS011;42227;6.376;-10.782;2024-02-04T09:28:19;63.03;;;29.65;;
56321;SDS011;42227;6.376;-10.782;2024-02-04T09:30:48;73.57;;;29.02;;
56321;SDS011;42227;6.376;-10.782;2024-02-04T09:33:16;69.82;;;29.88;;
56321;SDS011;42227;6.376;-10.782;2024-02-04T09:35:45;73.72;;;30.10;;
56321;SDS011;42227;6.376;-10.782;2024-02-04T09:38:14;79.75;;;26.75;;
56321;SDS011;42227;6.376;-10.782;2024-02-04T09:40:43;63.85;;;28.42;;
56321;SDS011;42227;6.376;-10.782;2024-02-04T09:43:11;68.70;;;28.33;;
56321;SDS011;42227;6.376;-10.782;2024-02-04T09:45:41;55.53;;;29.25;;
56321;SDS011;42227;6.376;-10.782;2024-02-04T09:48:09;56.55;;;28.95;;
56321;SDS011;42227;6.376;-10.782;2024-02-04T09:50:39;51.05;;;25.05;;
56321;SDS011;42227;6.376;-10.782;2024-02-04T09:53:08;57.40;;;25.85;;
56321;SDS011;42227;6.376;-10.782;2024-02-04T09:55:38;70.47;;;26.30;;
56321;SDS011;42227;6.376;-10.782;2024-02-04T09:58:08;45.60;;;25.60;;
56321;SDS011;42227;6.376;-10.782;2024-02-04T10:00:37;51.58;;;28.15;;
56321;SDS011;42227;6.376;-10.782;2024-02-04T10:03:07;50.05;;;27.23;;
56321;SDS011;42227;6.376;-10.782;2024-02-04T10:05:35;64.50;;;29.38;;
56321;SDS011;42227;6.376;-10.782;2024-02-04T10:08:04;72.75;;;29.13;;
56321;SDS011;42227;6.376;-10.782;2024-02-04T10:10:33;59.85;;;24.27;;
56321;SDS011;42227;6.376;-10.782;2024-02-04T10:13:08;52.10;;;26.67;;
56321;SDS011;42227;6.376;-10.782;2024-02-04T10:15:37;62.83;;;24.25;;
56321;SDS011;42227;6.376;-10.782;2024-02-04T10:18:06;56.15;;;25.00;;
56321;SDS011;42227;6.376;-10.782;2024-02-04T10:20:35;56.10;;;26.20;;
56321;SDS011;42227;6.376;-10.782;2024-02-04T10:23:04;46.17;;;24.48;;
56321;SDS011;42227;6.376;-10.782;2024-02-04T10:25:32;42.90;;;25.48;;
56321;SDS011;42227;6.376;-10.782;2024-02-04T10:28:01;48.33;;;24.10;;
56321;SDS011;42227;6.376;-10.782;2024-02-04T10:30:30;58.78;;;23.65;;
56321;SDS011;42227;6.376;-10.782;2024-02-04T10:32:59;44.22;;;22.52;;
56321;SDS011;42227;6.376;-10.782;2024-02-04T10:35:27;59.17;;;24.73;;
56321;SDS011;42227;6.376;-10.782;2024-02-04T10:37:56;47.85;;;23.45;;
56321;SDS011;42227;6.376;-10.782;2024-02-04T10:40:25;47.90;;;21.10;;
56321;SDS011;42227;6.376;-10.782;2024-02-04T10:42:54;41.53;;;19.70;;
56321;SDS011;42227;6.376;-10.782;2024-02-04T10:45:32;38.85;;;19.38;;
56321;SDS011;42227;6.376;-10.782;2024-02-04T10:48:02;46.30;;;21.55;;
56321;SDS011;42227;6.376;-10.782;2024-02-04T10:50:35;41.10;;;20.15;;
56321;SDS011;42227;6.376;-10.782;2024-02-04T10:53:05;48.72;;;22.75;;
56321;SDS011;42227;6.376;-10.782;2024-02-04T10:55:38;49.63;;;21.17;;
56321;SDS011;42227;6.376;-10.782;2024-02-04T10:58:09;45.83;;;21.23;;
56321;SDS011;42227;6.376;-10.782;2024-02-04T11:00:40;43.53;;;23.88;;
56321;SDS011;42227;6.376;-10.782;2024-02-04T11:03:09;38.47;;;19.33;;
56321;SDS011;42227;6.376;-10.782;2024-02-04T11:05:41;45.17;;;21.58;;
56321;SDS011;42227;6.376;-10.782;2024-02-04T11:08:10;45.88;;;23.08;;
56321;SDS011;42227;6.376;-10.782;2024-02-04T11:10:40;41.13;;;19.17;;
56321;SDS011;42227;6.376;-10.782;2024-02-04T11:13:08;57.00;;;19.85;;
56321;SDS011;42227;6.376;-10.782;2024-02-04T11:15:39;64.53;;;20.15;;
56321;SDS011;42227;6.376;-10.782;2024-02-04T11:26:17;48.20;;;23.80;;
56321;SDS011;42227;6.376;-10.782;2024-02-04T11:28:46;38.35;;;21.13;;
56321;SDS011;42227;6.376;-10.782;2024-02-04T11:31:17;39.80;;;22.30;;
56321;SDS011;42227;6.376;-10.782;2024-02-04T11:33:45;52.47;;;28.80;;
56321;SDS011;42227;6.376;-10.782;2024-02-04T11:36:18;52.40;;;21.42;;
56321;SDS011;42227;6.376;-10.782;2024-02-04T11:38:51;50.00;;;24.63;;
56321;SDS011;42227;6.376;-10.782;2024-02-04T11:41:23;44.38;;;21.10;;
56321;SDS011;42227;6.376;-10.782;2024-02-04T11:43:53;54.28;;;26.38;;
56321;SDS011;42227;6.376;-10.782;2024-02-04T11:46:30;47.53;;;20.67;;
56321;SDS011;42227;6.376;-10.782;2024-02-04T11:48:59;57.15;;;23.85;;
56321;SDS011;42227;6.376;-10.782;2024-02-04T11:51:28;42.97;;;24.52;;
56321;SDS011;42227;6.376;-10.782;2024-02-04T11:53:56;35.88;;;22.17;;
56321;SDS011;42227;6.376;-10.782;2024-02-04T11:56:25;48.15;;;25.02;;
56321;SDS011;42227;6.376;-10.782;2024-02-04T11:58:53;59.80;;;23.23;;
56321;SDS011;42227;6.376;-10.782;2024-02-04T12:01:22;40.22;;;21.08;;
56321;SDS011;42227;6.376;-10.782;2024-02-04T12:03:51;45.25;;;20.55;;
56321;SDS011;42227;6.376;-10.782;2024-02-04T12:06:20;47.60;;;22.50;;
56321;SDS011;42227;6.376;-10.782;2024-02-04T12:08:49;46.65;;;23.95;;
56321;SDS011;42227;6.376;-10.782;2024-02-04T12:11:17;44.45;;;22.63;;
56321;SDS011;42227;6.376;-10.782;2024-02-04T12:13:46;69.25;;;26.15;;
56321;SDS011;42227;6.376;-10.782;2024-02-04T12:16:17;61.40;;;25.25;;
56321;SDS011;42227;6.376;-10.782;2024-02-04T12:18:50;34.35;;;21.20;;
56321;SDS011;42227;6.376;-10.782;2024-02-04T12:21:19;64.40;;;24.90;;
56321;SDS011;42227;6.376;-10.782;2024-02-04T12:23:47;56.05;;;22.40;;
56321;SDS011;42227;6.376;-10.782;2024-02-04T12:26:16;63.28;;;25.17;;
56321;SDS011;42227;6.376;-10.782;2024-02-04T12:28:44;50.60;;;21.65;;
56321;SDS011;42227;6.376;-10.782;2024-02-04T12:31:16;50.92;;;20.55;;
56321;SDS011;42227;6.376;-10.782;2024-02-04T12:33:52;55.75;;;25.67;;
56321;SDS011;42227;6.376;-10.782;2024-02-04T12:36:22;57.53;;;21.92;;
56321;SDS011;42227;6.376;-10.782;2024-02-04T12:38:54;58.88;;;22.58;;
56321;SDS011;42227;6.376;-10.782;2024-02-04T12:41:27;43.85;;;21.65;;
56321;SDS011;42227;6.376;-10.782;2024-02-04T12:43:57;45.50;;;23.13;;
56321;SDS011;42227;6.376;-10.782;2024-02-04T12:46:26;50.20;;;22.38;;
56321;SDS011;42227;6.376;-10.782;2024-02-04T12:48:56;38.03;;;21.75;;
56321;SDS011;42227;6.376;-10.782;2024-02-04T12:51:31;47.10;;;20.58;;
56321;SDS011;42227;6.376;-10.782;2024-02-04T12:56:50;50.63;;;22.40;;
56321;SDS011;42227;6.376;-10.782;2024-02-04T12:59:32;79.63;;;24.10;;
56321;SDS011;42227;6.376;-10.782;2024-02-04T13:02:02;48.08;;;23.50;;
56321;SDS011;42227;6.376;-10.782;2024-02-04T13:04:34;61.15;;;20.92;;
56321;SDS011;42227;6.376;-10.782;2024-02-04T13:07:07;39.10;;;21.48;;
56321;SDS011;42227;6.376;-10.782;2024-02-04T13:09:40;51.50;;;20.80;;
56321;SDS011;42227;6.376;-10.782;2024-02-04T13:12:09;57.15;;;23.75;;
56321;SDS011;42227;6.376;-10.782;2024-02-04T13:14:38;61.58;;;24.60;;
56321;SDS011;42227;6.376;-10.782;2024-02-04T13:17:07;54.42;;;21.30;;
56321;SDS011;42227;6.376;-10.782;2024-02-04T13:19:36;43.53;;;22.20;;
56321;SDS011;42227;6.376;-10.782;2024-02-04T13:22:06;41.03;;;19.97;;
56321;SDS011;42227;6.376;-10.782;2024-02-04T13:24:35;46.95;;;22.17;;
56321;SDS011;42227;6.376;-10.782;2024-02-04T13:27:04;54.90;;;24.50;;
56321;SDS011;42227;6.376;-10.782;2024-02-04T13:29:34;40.63;;;19.90;;
56321;SDS011;42227;6.376;-10.782;2024-02-04T13:32:03;59.13;;;20.90;;
56321;SDS011;42227;6.376;-10.782;2024-02-04T13:34:32;49.53;;;21.70;;
56321;SDS011;42227;6.376;-10.782;2024-02-04T13:37:01;49.22;;;23.52;;
56321;SDS011;42227;6.376;-10.782;2024-02-04T13:39:30;40.03;;;19.33;;
56321;SDS011;42227;6.376;-10.782;2024-02-04T13:41:59;61.40;;;24.08;;
56321;SDS011;42227;6.376;-10.782;2024-02-04T13:44:27;54.67;;;23.33;;
56321;SDS011;42227;6.376;-10.782;2024-02-04T13:46:55;57.42;;;24.13;;
56321;SDS011;42227;6.376;-10.782;2024-02-04T13:49:24;47.80;;;19.88;;
56321;SDS011;42227;6.376;-10.782;2024-02-04T13:51:52;39.42;;;20.50;;
56321;SDS011;42227;6.376;-10.782;2024-02-04T13:54:23;62.67;;;24.35;;
56321;SDS011;42227;6.376;-10.782;2024-02-04T13:56:52;35.40;;;20.15;;
56321;SDS011;42227;6.376;-10.782;2024-02-04T14:02:29;41.42;;;20.35;;
56321;SDS011;42227;6.376;-10.782;2024-02-04T14:04:58;69.50;;;24.67;;
56321;SDS011;42227;6.376;-10.782;2024-02-04T14:07:27;59.55;;;26.63;;
56321;SDS011;42227;6.376;-10.782;2024-02-04T14:09:55;57.17;;;25.80;;
56321;SDS011;42227;6.376;-10.782;2024-02-04T14:12:24;52.53;;;24.30;;
56321;SDS011;42227;6.376;-10.782;2024-02-04T14:14:52;56.28;;;24.45;;
56321;SDS011;42227;6.376;-10.782;2024-02-04T14:17:21;48.47;;;21.60;;
56321;SDS011;42227;6.376;-10.782;2024-02-04T14:19:49;57.03;;;23.77;;
56321;SDS011;42227;6.376;-10.782;2024-02-04T14:22:18;49.42;;;25.00;;
56321;SDS011;42227;6.376;-10.782;2024-02-04T14:24:47;59.25;;;26.58;;
56321;SDS011;42227;6.376;-10.782;2024-02-04T14:27:15;49.53;;;23.40;;
56321;SDS011;42227;6.376;-10.782;2024-02-04T14:29:43;62.47;;;21.67;;
56321;SDS011;42227;6.376;-10.782;2024-02-04T14:32:12;49.00;;;21.73;;
56321;SDS011;42227;6.376;-10.782;2024-02-04T14:34:40;47.55;;;21.65;;